createdAt,value
2023-03-29T00:00:16.926Z,4.50
2023-03-29T00:03:04.730Z,3.80
2023-03-29T00:05:35.109Z,7.70
2023-03-29T00:08:04.611Z,6.10
2023-03-29T00:10:32.782Z,5.50
2023-03-29T00:13:00.524Z,7.70
2023-03-29T00:15:28.189Z,6.30
2023-03-29T00:17:56.155Z,4.90
2023-03-29T00:20:23.918Z,3.70
2023-03-29T00:22:51.886Z,3.30
2023-03-29T00:25:19.550Z,5.40
2023-03-29T00:27:47.309Z,3.90
2023-03-29T00:30:15.600Z,6.60
2023-03-29T00:32:43.364Z,6.60
2023-03-29T00:35:11.224Z,5.60
2023-03-29T00:37:38.877Z,7.60
2023-03-29T00:40:11.253Z,5.40
2023-03-29T00:42:38.923Z,5.90
2023-03-29T00:45:07.295Z,5.30
2023-03-29T00:47:35.080Z,5.20
2023-03-29T00:50:02.821Z,5.00
2023-03-29T00:52:30.489Z,9.10
2023-03-29T00:54:58.142Z,7.90
2023-03-29T00:57:27.695Z,10.20
2023-03-29T00:59:55.614Z,4.60
2023-03-29T01:02:23.410Z,6.00
2023-03-29T01:04:51.145Z,4.80
2023-03-29T01:07:21.566Z,5.70
2023-03-29T01:09:49.438Z,4.30
2023-03-29T01:12:20.172Z,5.30
2023-03-29T01:14:47.942Z,5.20
2023-03-29T01:17:16.317Z,4.50
2023-03-29T01:19:43.984Z,8.50
2023-03-29T01:22:13.701Z,5.00
2023-03-29T01:24:42.241Z,3.50
2023-03-29T01:27:10.032Z,7.30
2023-03-29T01:29:37.797Z,6.20
2023-03-29T01:32:05.624Z,6.30
2023-03-29T01:34:33.533Z,6.10
2023-03-29T01:37:01.191Z,7.60
2023-03-29T01:39:28.955Z,7.90
2023-03-29T01:41:56.719Z,8.50
2023-03-29T01:44:24.484Z,7.40
2023-03-29T01:46:52.149Z,5.00
2023-03-29T01:49:19.806Z,9.40
2023-03-29T01:51:47.468Z,8.60
2023-03-29T01:54:15.141Z,4.40
2023-03-29T01:56:42.933Z,6.60
2023-03-29T01:59:11.487Z,9.20
2023-03-29T02:01:39.181Z,6.40
2023-03-29T02:04:07.008Z,8.00
2023-03-29T02:06:34.772Z,5.20
2023-03-29T02:09:05.095Z,6.80
2023-03-29T02:11:32.753Z,7.60
2023-03-29T02:14:00.928Z,6.70
2023-03-29T02:16:28.899Z,7.20
2023-03-29T02:18:57.171Z,3.80
2023-03-29T02:21:24.940Z,7.30
2023-03-29T02:23:54.868Z,6.30
2023-03-29T02:26:24.129Z,7.00
2023-03-29T02:28:53.144Z,8.40
2023-03-29T02:31:21.576Z,12.60
2023-03-29T02:33:49.386Z,6.40
2023-03-29T02:36:17.849Z,7.20
2023-03-29T02:38:46.656Z,8.60
2023-03-29T02:41:14.420Z,7.10
2023-03-29T02:43:42.490Z,5.40
2023-03-29T02:46:10.192Z,6.20
2023-03-29T02:48:38.028Z,9.70
2023-03-29T02:51:05.991Z,7.80
2023-03-29T02:53:33.761Z,11.30
2023-03-29T02:56:02.473Z,9.80
2023-03-29T02:58:31.850Z,5.20
2023-03-29T03:00:59.829Z,7.50
2023-03-29T03:03:27.929Z,8.40
2023-03-29T03:05:55.650Z,7.70
2023-03-29T03:08:23.411Z,7.80
2023-03-29T03:10:51.076Z,10.00
2023-03-29T03:13:18.938Z,11.40
2023-03-29T03:15:49.426Z,7.10
2023-03-29T03:18:17.847Z,8.30
2023-03-29T03:20:46.844Z,7.70
2023-03-29T03:23:14.604Z,7.10
2023-03-29T03:25:42.261Z,8.50
2023-03-29T03:28:10.445Z,11.10
2023-03-29T03:30:38.812Z,9.50
2023-03-29T03:33:06.506Z,7.60
2023-03-29T03:35:35.104Z,8.40
2023-03-29T03:38:02.922Z,9.60
2023-03-29T03:40:30.690Z,7.20
2023-03-29T03:42:58.460Z,11.60
2023-03-29T03:45:26.322Z,6.20
2023-03-29T03:47:54.241Z,10.70
2023-03-29T03:50:21.951Z,8.80
2023-03-29T03:52:49.627Z,10.50
2023-03-29T03:55:17.993Z,9.40
2023-03-29T03:57:45.919Z,9.00
2023-03-29T04:00:19.983Z,7.10
2023-03-29T04:02:48.482Z,9.80
2023-03-29T04:05:17.339Z,9.30
2023-03-29T04:07:45.001Z,9.10
2023-03-29T04:10:12.764Z,8.90
2023-03-29T04:12:40.531Z,7.80
2023-03-29T04:15:08.902Z,11.60
2023-03-29T04:17:37.351Z,9.80
2023-03-29T04:20:12.798Z,9.80
2023-03-29T04:22:41.344Z,7.70
2023-03-29T04:25:10.571Z,8.50
2023-03-29T04:27:38.412Z,10.20
2023-03-29T04:30:07.472Z,8.60
2023-03-29T04:32:35.253Z,8.70
2023-03-29T04:35:04.955Z,7.80
2023-03-29T04:37:32.714Z,8.80
2023-03-29T04:40:09.208Z,14.90
2023-03-29T04:42:37.640Z,8.80
2023-03-29T04:45:07.396Z,10.10
2023-03-29T04:47:36.723Z,10.80
2023-03-29T04:50:04.535Z,11.80
2023-03-29T04:52:33.561Z,10.80
2023-03-29T04:55:01.806Z,12.30
2023-03-29T04:57:29.570Z,10.10
2023-03-29T04:59:57.336Z,12.90
2023-03-29T05:02:25.141Z,7.40
2023-03-29T05:04:52.864Z,16.00
2023-03-29T05:07:20.626Z,19.60
2023-03-29T05:09:48.797Z,20.20
2023-03-29T05:12:16.561Z,24.10
2023-03-29T05:14:44.237Z,23.00
2023-03-29T05:17:11.989Z,17.00
2023-03-29T05:19:39.761Z,23.20
2023-03-29T05:22:07.731Z,14.60
2023-03-29T05:24:35.513Z,19.30
2023-03-29T05:27:03.971Z,17.90
2023-03-29T05:29:34.389Z,23.40
2023-03-29T05:32:02.198Z,19.50
2023-03-29T05:34:31.659Z,17.20
2023-03-29T05:36:59.731Z,17.20
2023-03-29T05:39:27.491Z,17.10
2023-03-29T05:41:55.254Z,14.50
2023-03-29T05:44:23.019Z,15.50
2023-03-29T05:46:50.893Z,20.60
2023-03-29T05:49:18.865Z,20.30
2023-03-29T05:51:46.622Z,16.50
2023-03-29T05:54:15.304Z,10.50
2023-03-29T05:56:43.096Z,15.00
2023-03-29T05:59:10.835Z,17.40
2023-03-29T06:01:40.234Z,15.90
2023-03-29T06:04:08.087Z,16.30
2023-03-29T06:06:36.050Z,22.30
2023-03-29T06:09:04.347Z,17.40
2023-03-29T06:11:33.240Z,22.50
2023-03-29T06:14:02.640Z,17.80
2023-03-29T06:16:30.437Z,17.20
2023-03-29T06:18:58.475Z,18.30
2023-03-29T06:21:27.468Z,22.50
2023-03-29T06:23:55.136Z,15.90
2023-03-29T06:26:23.311Z,18.20
2023-03-29T06:28:52.386Z,15.70
2023-03-29T06:31:21.293Z,22.90
2023-03-29T06:33:49.773Z,19.40
2023-03-29T06:36:17.571Z,18.40
2023-03-29T06:38:46.222Z,22.30
2023-03-29T06:41:15.118Z,18.90
2023-03-29T06:43:42.876Z,20.40
2023-03-29T06:46:12.563Z,22.10
2023-03-29T06:48:41.195Z,23.60
2023-03-29T06:51:08.946Z,23.00
2023-03-29T06:53:37.007Z,22.90
2023-03-29T06:56:05.505Z,21.00
2023-03-29T06:58:33.254Z,20.90
2023-03-29T07:01:02.574Z,20.20
2023-03-29T07:03:30.632Z,20.30
2023-03-29T07:06:01.454Z,18.70
2023-03-29T07:08:31.979Z,14.10
2023-03-29T07:11:00.083Z,18.50
2023-03-29T07:13:28.023Z,17.40
2023-03-29T07:15:56.049Z,17.10
2023-03-29T07:18:24.062Z,12.20
2023-03-29T07:20:52.444Z,16.10
2023-03-29T07:23:20.081Z,14.30
2023-03-29T07:25:47.767Z,16.10
2023-03-29T07:28:15.424Z,16.70
2023-03-29T07:30:43.088Z,15.30
2023-03-29T07:33:10.838Z,16.50
2023-03-29T07:35:38.665Z,21.10
2023-03-29T07:38:08.427Z,13.80
2023-03-29T07:40:36.071Z,17.10
2023-03-29T07:43:09.138Z,14.70
2023-03-29T07:45:37.253Z,15.60
2023-03-29T07:48:05.158Z,13.10
2023-03-29T07:50:32.990Z,11.80
2023-03-29T07:53:01.665Z,13.30
2023-03-29T07:55:29.426Z,9.50
2023-03-29T07:57:57.092Z,13.30
2023-03-29T08:00:25.221Z,7.20
2023-03-29T08:02:53.263Z,6.70
2023-03-29T08:05:29.059Z,11.90
2023-03-29T08:08:01.562Z,12.50
2023-03-29T08:10:29.220Z,9.00
2023-03-29T08:12:58.420Z,4.80
2023-03-29T08:15:26.800Z,6.70
2023-03-29T08:17:54.701Z,5.90
2023-03-29T08:20:22.540Z,6.30
2023-03-29T08:22:50.165Z,8.00
2023-03-29T08:25:17.959Z,19.20
2023-03-29T08:27:45.625Z,10.20
2023-03-29T08:30:15.750Z,18.70
2023-03-29T08:32:43.680Z,7.10
2023-03-29T08:35:11.480Z,9.00
2023-03-29T08:37:39.346Z,5.30
2023-03-29T08:40:07.105Z,9.70
2023-03-29T08:42:34.815Z,8.90
2023-03-29T08:45:03.047Z,11.90
2023-03-29T08:47:31.342Z,9.20
2023-03-29T08:49:59.391Z,8.90
2023-03-29T08:52:27.328Z,9.80
2023-03-29T08:54:56.141Z,8.10
2023-03-29T08:57:24.061Z,8.50
2023-03-29T08:59:51.979Z,7.50
2023-03-29T09:02:19.680Z,10.10
2023-03-29T09:04:49.127Z,10.80
2023-03-29T09:07:17.216Z,8.70
2023-03-29T09:09:45.181Z,10.10
2023-03-29T09:12:13.355Z,9.20
2023-03-29T09:14:41.231Z,8.20
2023-03-29T09:17:08.990Z,10.90
2023-03-29T09:19:36.657Z,6.80
2023-03-29T09:22:04.617Z,9.80
2023-03-29T09:24:32.687Z,9.70
2023-03-29T09:27:00.458Z,6.90
2023-03-29T09:29:28.215Z,10.20
2023-03-29T09:31:56.666Z,10.10
2023-03-29T09:34:24.431Z,8.90
2023-03-29T09:36:52.682Z,11.20
2023-03-29T09:39:23.367Z,10.80
2023-03-29T09:41:51.032Z,11.30
2023-03-29T09:44:30.138Z,10.10
2023-03-29T09:46:58.640Z,11.50
2023-03-29T09:49:26.405Z,16.40
2023-03-29T09:51:54.576Z,13.40
2023-03-29T09:54:22.446Z,10.40
2023-03-29T09:56:50.262Z,8.80
2023-03-29T09:59:18.080Z,7.10
2023-03-29T10:01:46.006Z,9.40
2023-03-29T10:04:13.851Z,9.90
2023-03-29T10:06:41.572Z,16.60
2023-03-29T10:09:09.339Z,10.00
2023-03-29T10:11:37.212Z,11.80
2023-03-29T10:14:04.979Z,12.20
2023-03-29T10:16:32.831Z,19.50
2023-03-29T10:19:00.598Z,12.50
2023-03-29T10:21:28.222Z,7.80
2023-03-29T10:23:55.922Z,9.60
2023-03-29T10:26:24.094Z,14.80
2023-03-29T10:28:51.859Z,10.90
2023-03-29T10:31:19.746Z,10.90
2023-03-29T10:33:47.492Z,10.10
2023-03-29T10:36:15.646Z,10.40
2023-03-29T10:38:43.425Z,13.50
2023-03-29T10:41:11.207Z,10.30
2023-03-29T10:43:52.778Z,11.30
2023-03-29T10:46:21.004Z,12.40
2023-03-29T10:48:49.234Z,9.50
2023-03-29T10:51:17.092Z,22.20
2023-03-29T10:53:44.860Z,15.00
2023-03-29T10:56:12.936Z,11.00
2023-03-29T10:58:40.694Z,9.40
2023-03-29T11:01:08.377Z,8.50
2023-03-29T11:03:36.277Z,8.10
2023-03-29T11:06:04.498Z,10.30
2023-03-29T11:08:32.214Z,7.50
2023-03-29T11:11:00.018Z,7.30
2023-03-29T11:13:28.094Z,5.30
2023-03-29T11:15:56.007Z,7.70
2023-03-29T11:18:23.835Z,7.30
2023-03-29T11:20:52.103Z,7.50
2023-03-29T11:23:19.765Z,8.10
2023-03-29T11:25:47.629Z,11.10
2023-03-29T11:28:15.395Z,6.30
2023-03-29T11:30:43.160Z,5.50
2023-03-29T11:33:10.831Z,6.20
2023-03-29T11:35:38.648Z,6.70
2023-03-29T11:38:06.961Z,5.50
2023-03-29T11:40:36.400Z,5.70
2023-03-29T11:43:04.744Z,3.30
2023-03-29T11:45:32.715Z,7.60
2023-03-29T11:48:00.531Z,4.80
2023-03-29T11:50:28.343Z,7.10
2023-03-29T11:52:56.209Z,8.20
2023-03-29T11:55:23.977Z,6.60
2023-03-29T11:57:51.741Z,5.90
2023-03-29T12:00:19.910Z,8.00
2023-03-29T12:02:48.447Z,8.20
2023-03-29T12:05:17.900Z,6.80
2023-03-29T12:07:45.863Z,7.60
2023-03-29T12:10:13.630Z,5.70
2023-03-29T12:12:41.293Z,7.00
2023-03-29T12:15:09.361Z,4.40
2023-03-29T12:17:37.395Z,5.40
2023-03-29T12:20:05.337Z,5.40
2023-03-29T12:22:33.879Z,6.20
2023-03-29T12:25:01.652Z,7.20
2023-03-29T12:27:29.410Z,6.30
2023-03-29T12:29:57.174Z,5.90
2023-03-29T12:32:24.878Z,6.90
2023-03-29T12:34:52.704Z,6.60
2023-03-29T12:37:21.185Z,7.70
2023-03-29T12:39:49.362Z,15.30
2023-03-29T12:42:17.278Z,7.90
2023-03-29T12:44:44.992Z,10.40
2023-03-29T12:47:12.652Z,9.90
2023-03-29T12:49:40.315Z,7.20
2023-03-29T12:52:07.978Z,9.90
2023-03-29T12:54:35.860Z,7.80
2023-03-29T12:57:03.543Z,8.40
2023-03-29T12:59:31.370Z,7.90
2023-03-29T13:01:59.071Z,9.10
2023-03-29T13:04:27.208Z,7.70
2023-03-29T13:06:56.372Z,5.70
2023-03-29T13:09:24.077Z,7.90
2023-03-29T13:11:51.852Z,5.00
2023-03-29T13:14:19.603Z,5.50
2023-03-29T13:16:47.361Z,9.10
2023-03-29T13:19:15.023Z,8.90
2023-03-29T13:21:42.784Z,7.50
2023-03-29T13:24:10.441Z,5.60
2023-03-29T13:26:38.108Z,7.60
2023-03-29T13:29:05.766Z,5.20
2023-03-29T13:31:33.469Z,7.70
2023-03-29T13:34:01.508Z,6.00
2023-03-29T13:36:30.747Z,4.90
2023-03-29T13:39:00.406Z,5.80
2023-03-29T13:41:28.986Z,9.00
2023-03-29T13:43:56.752Z,6.30
2023-03-29T13:46:24.486Z,7.50
2023-03-29T13:48:53.972Z,7.70
2023-03-29T13:51:21.997Z,8.30
2023-03-29T13:53:49.652Z,6.40
2023-03-29T13:56:17.320Z,6.10
2023-03-29T13:58:45.079Z,6.00
2023-03-29T14:01:12.989Z,6.40
2023-03-29T14:03:40.713Z,5.50
2023-03-29T14:06:08.370Z,4.90
2023-03-29T14:08:36.122Z,8.50
2023-03-29T14:11:03.909Z,6.30
2023-03-29T14:13:31.661Z,5.40
2023-03-29T14:16:00.286Z,6.70
2023-03-29T14:18:28.108Z,6.40
2023-03-29T14:20:55.872Z,5.40
2023-03-29T14:23:23.644Z,5.40
2023-03-29T14:25:51.495Z,5.50
2023-03-29T14:28:19.275Z,7.40
2023-03-29T14:30:47.445Z,4.70
2023-03-29T14:33:15.104Z,4.80
2023-03-29T14:35:42.931Z,4.90
2023-03-29T14:38:10.628Z,5.50
2023-03-29T14:40:38.291Z,6.40
2023-03-29T14:43:06.081Z,5.30
2023-03-29T14:45:33.826Z,5.70
2023-03-29T14:48:01.833Z,6.10
2023-03-29T14:50:29.653Z,5.10
2023-03-29T14:52:57.420Z,6.00
2023-03-29T14:55:25.170Z,5.80
2023-03-29T14:57:52.947Z,6.10
2023-03-29T15:00:21.427Z,5.60
2023-03-29T15:02:49.243Z,4.00
2023-03-29T15:05:17.162Z,4.20
2023-03-29T15:07:45.030Z,4.10
2023-03-29T15:10:12.686Z,5.20
2023-03-29T15:12:40.350Z,9.50
2023-03-29T15:15:10.679Z,3.60
2023-03-29T15:17:50.314Z,4.80
2023-03-29T15:20:21.602Z,4.70
2023-03-29T15:22:49.539Z,5.70
2023-03-29T15:25:17.502Z,6.50
2023-03-29T15:27:45.263Z,3.70
2023-03-29T15:30:13.031Z,5.00
2023-03-29T15:32:41.780Z,3.70
2023-03-29T15:35:09.788Z,4.40
2023-03-29T15:37:37.960Z,6.70
2023-03-29T15:40:09.931Z,3.20
2023-03-29T15:42:37.787Z,4.90
2023-03-29T15:45:06.652Z,4.00
2023-03-29T15:47:34.377Z,4.00
2023-03-29T15:50:02.210Z,7.10
2023-03-29T15:52:29.979Z,3.50
2023-03-29T15:54:57.731Z,3.60
2023-03-29T15:57:25.708Z,8.40
2023-03-29T15:59:53.582Z,6.40
2023-03-29T16:02:21.910Z,9.50
2023-03-29T16:04:49.815Z,12.40
2023-03-29T16:07:17.474Z,15.40
2023-03-29T16:09:46.060Z,11.50
2023-03-29T16:12:13.718Z,192.10
2023-03-29T16:14:43.036Z,37.40
2023-03-29T16:17:11.089Z,24.70
2023-03-29T16:19:38.859Z,20.60
2023-03-29T16:22:07.693Z,12.90
2023-03-29T16:24:35.820Z,23.40
2023-03-29T16:27:04.001Z,23.20
2023-03-29T16:29:31.994Z,9.80
2023-03-29T16:32:00.221Z,8.20
2023-03-29T16:34:28.529Z,8.20
2023-03-29T16:36:56.171Z,5.10
2023-03-29T16:39:23.943Z,10.50
2023-03-29T16:41:51.698Z,15.50
2023-03-29T16:44:21.776Z,28.40
2023-03-29T16:46:51.835Z,60.80
2023-03-29T16:49:19.744Z,60.50
2023-03-29T16:51:48.081Z,69.30
2023-03-29T16:54:17.376Z,91.70
2023-03-29T16:56:45.175Z,58.50
2023-03-29T16:59:12.906Z,49.90
2023-03-29T17:01:40.928Z,48.40
2023-03-29T17:04:09.015Z,41.20
2023-03-29T17:06:37.233Z,50.30
2023-03-29T17:09:06.258Z,51.80
2023-03-29T17:11:34.307Z,57.50
2023-03-29T17:14:02.156Z,56.70
2023-03-29T17:16:29.850Z,60.10
2023-03-29T17:18:58.709Z,62.40
2023-03-29T17:21:27.490Z,67.40
2023-03-29T17:23:55.670Z,82.50
2023-03-29T17:26:23.325Z,114.00
2023-03-29T17:28:51.094Z,112.50
2023-03-29T17:31:19.896Z,120.50
2023-03-29T17:33:50.611Z,105.70
2023-03-29T17:36:19.340Z,100.00
2023-03-29T17:38:48.973Z,105.40
2023-03-29T17:41:16.678Z,107.00
2023-03-29T17:43:44.805Z,121.70
2023-03-29T17:46:12.537Z,149.20
2023-03-29T17:48:40.376Z,257.70
2023-03-29T17:51:08.033Z,199.50
2023-03-29T17:53:35.706Z,135.20
2023-03-29T17:56:04.434Z,142.90
2023-03-29T17:58:33.074Z,155.30
2023-03-29T18:01:01.578Z,194.40
2023-03-29T18:03:29.249Z,235.30
2023-03-29T18:05:56.979Z,202.80
2023-03-29T18:08:24.597Z,236.00
2023-03-29T18:10:52.301Z,316.70
2023-03-29T18:13:25.634Z,490.50
2023-03-29T18:15:53.353Z,445.20
2023-03-29T18:18:21.029Z,440.50
2023-03-29T18:20:48.783Z,342.60
2023-03-29T18:23:16.442Z,283.60
2023-03-29T18:25:44.106Z,359.70
2023-03-29T18:28:11.972Z,331.10
2023-03-29T18:30:39.739Z,204.90
2023-03-29T18:33:07.552Z,134.10
2023-03-29T18:35:35.285Z,124.20
2023-03-29T18:38:03.644Z,137.40
2023-03-29T18:40:31.308Z,162.30
2023-03-29T18:42:58.967Z,248.70
2023-03-29T18:45:26.734Z,195.20
2023-03-29T18:47:54.441Z,211.40
2023-03-29T18:50:22.569Z,338.20
2023-03-29T18:52:50.230Z,211.10
2023-03-29T18:55:17.891Z,194.60
2023-03-29T18:57:45.692Z,186.00
2023-03-29T19:00:13.422Z,182.30
2023-03-29T19:02:41.272Z,133.70
2023-03-29T19:05:09.179Z,144.70
2023-03-29T19:07:37.020Z,116.60
2023-03-29T19:10:05.163Z,143.50
2023-03-29T19:12:33.469Z,144.10
2023-03-29T19:15:01.234Z,109.50
2023-03-29T19:17:29.015Z,107.60
2023-03-29T19:19:56.976Z,253.90
2023-03-29T19:22:24.617Z,145.40
2023-03-29T19:24:52.393Z,78.70
2023-03-29T19:27:20.158Z,150.80
2023-03-29T19:29:48.437Z,104.60
2023-03-29T19:32:16.408Z,77.60
2023-03-29T19:34:44.077Z,74.70
2023-03-29T19:37:11.837Z,67.80
2023-03-29T19:39:41.229Z,67.60
2023-03-29T19:42:08.885Z,78.60
2023-03-29T19:44:38.392Z,72.10
2023-03-29T19:47:06.212Z,62.70
2023-03-29T19:49:38.422Z,74.10
2023-03-29T19:52:06.492Z,70.20
2023-03-29T19:54:34.182Z,72.30
2023-03-29T19:57:02.976Z,69.90
2023-03-29T19:59:31.622Z,78.70
2023-03-29T20:01:59.520Z,60.90
2023-03-29T20:04:29.014Z,56.30
2023-03-29T20:06:57.790Z,57.20
2023-03-29T20:09:25.450Z,51.80
2023-03-29T20:11:53.212Z,57.20
2023-03-29T20:14:20.975Z,61.80
2023-03-29T20:16:50.933Z,62.90
2023-03-29T20:19:19.476Z,58.50
2023-03-29T20:21:50.923Z,50.30
2023-03-29T20:24:19.102Z,50.60
2023-03-29T20:26:46.725Z,57.30
2023-03-29T20:29:15.551Z,47.30
2023-03-29T20:31:43.273Z,52.80
2023-03-29T20:34:11.383Z,52.30
2023-03-29T20:36:40.551Z,54.20
2023-03-29T20:39:08.548Z,51.90
2023-03-29T20:41:38.464Z,49.20
2023-03-29T20:44:06.437Z,53.50
2023-03-29T20:46:34.374Z,59.70
2023-03-29T20:49:02.280Z,51.10
2023-03-29T20:51:33.108Z,54.70
2023-03-29T20:54:02.782Z,58.50
2023-03-29T20:56:30.686Z,70.10
2023-03-29T20:58:59.058Z,75.80
2023-03-29T21:01:28.085Z,79.10
2023-03-29T21:03:55.987Z,72.80
2023-03-29T21:06:24.603Z,95.30
2023-03-29T21:08:52.760Z,76.30
2023-03-29T21:11:20.444Z,86.90
2023-03-29T21:13:48.211Z,117.50
2023-03-29T21:16:15.987Z,77.20
2023-03-29T21:18:44.046Z,94.30
2023-03-29T21:21:11.700Z,88.00
2023-03-29T21:23:39.468Z,68.50
2023-03-29T21:26:08.052Z,48.20
2023-03-29T21:28:36.023Z,57.10
2023-03-29T21:31:04.964Z,47.40
2023-03-29T21:33:33.090Z,51.80
2023-03-29T21:36:01.293Z,45.60
2023-03-29T21:38:29.022Z,39.80
2023-03-29T21:40:58.242Z,39.90
2023-03-29T21:43:25.954Z,45.80
2023-03-29T21:45:53.844Z,41.50
2023-03-29T21:48:21.507Z,35.80
2023-03-29T21:50:49.683Z,36.10
2023-03-29T21:53:18.478Z,43.70
2023-03-29T21:55:46.234Z,39.10
2023-03-29T21:58:13.895Z,43.80
2023-03-29T22:00:41.923Z,41.20
2023-03-29T22:03:09.696Z,34.90
2023-03-29T22:05:37.501Z,31.20
2023-03-29T22:08:05.267Z,31.80
2023-03-29T22:10:33.747Z,27.40
2023-03-29T22:13:01.505Z,28.40
2023-03-29T22:15:35.653Z,30.10
2023-03-29T22:18:03.415Z,30.20
2023-03-29T22:20:31.249Z,24.70
2023-03-29T22:22:58.910Z,24.90
2023-03-29T22:25:27.289Z,30.60
2023-03-29T22:27:54.952Z,23.00
2023-03-29T22:30:23.039Z,31.40
2023-03-29T22:32:51.018Z,27.60
2023-03-29T22:35:18.956Z,25.40
2023-03-29T22:37:46.618Z,24.70
2023-03-29T22:40:14.280Z,22.10
2023-03-29T22:42:41.958Z,28.90
2023-03-29T22:45:09.708Z,29.10
2023-03-29T22:47:37.538Z,26.60
2023-03-29T22:50:05.233Z,28.30
2023-03-29T22:52:33.003Z,25.30
2023-03-29T22:55:00.676Z,25.30
2023-03-29T22:57:28.445Z,29.00
2023-03-29T22:59:56.288Z,27.40
2023-03-29T23:02:24.504Z,27.80
2023-03-29T23:04:52.360Z,35.10
2023-03-29T23:07:20.198Z,31.90
2023-03-29T23:09:47.855Z,31.40
2023-03-29T23:12:15.726Z,46.30
2023-03-29T23:14:45.431Z,49.10
2023-03-29T23:17:13.602Z,30.70
2023-03-29T23:19:41.790Z,36.10
2023-03-29T23:22:09.440Z,26.90
2023-03-29T23:24:37.101Z,27.70
2023-03-29T23:27:05.682Z,25.80
2023-03-29T23:29:34.678Z,32.50
2023-03-29T23:32:02.343Z,41.10
2023-03-29T23:34:30.315Z,56.00
2023-03-29T23:36:57.969Z,58.10
2023-03-29T23:39:25.633Z,41.00
2023-03-29T23:41:53.396Z,31.60
2023-03-29T23:44:21.056Z,38.60
2023-03-29T23:46:48.854Z,47.60
2023-03-29T23:49:17.404Z,54.10
2023-03-29T23:51:45.166Z,45.70
2023-03-29T23:54:13.137Z,28.90
2023-03-29T23:56:40.887Z,23.90
2023-03-29T23:59:09.091Z,25.10
